createdAt,value
2019-02-12T00:03:02.061Z,120.53
2019-02-12T00:08:09.572Z,766.90
2019-02-12T00:13:17.071Z,655.40
2019-02-12T00:18:24.571Z,565.62
2019-02-12T00:23:32.002Z,245.20
2019-02-12T00:28:39.403Z,61.10
2019-02-12T00:33:46.987Z,28.40
2019-02-12T00:44:03.417Z,111.30
2019-02-12T00:49:10.989Z,268.43
2019-02-12T00:54:26.568Z,379.17
2019-02-12T00:59:40.923Z,389.97
2019-02-12T01:04:57.338Z,248.63
2019-02-12T01:10:15.025Z,89.85
2019-02-12T01:15:30.089Z,27.02
2019-02-12T01:20:46.463Z,14.03
2019-02-12T01:26:07.873Z,9.95
2019-02-12T01:31:23.418Z,5.65
2019-02-12T01:36:42.228Z,4.27
2019-02-12T01:41:51.611Z,5.28
2019-02-12T01:47:04.464Z,8.07
2019-02-12T01:52:14.514Z,4.67
2019-02-12T01:57:32.966Z,4.05
2019-02-12T02:03:03.040Z,6.47
2019-02-12T02:08:15.401Z,4.28
2019-02-12T02:13:26.140Z,5.03
2019-02-12T02:18:33.138Z,11.50
2019-02-12T02:23:40.514Z,357.93
2019-02-12T02:28:47.513Z,177.78
2019-02-12T02:33:54.911Z,54.30
2019-02-12T02:39:02.384Z,10.85
2019-02-12T02:44:09.926Z,12.70
2019-02-12T02:49:17.386Z,6.97
2019-02-12T02:54:24.963Z,6.58
2019-02-12T02:59:32.395Z,5.55
2019-02-12T03:04:40.678Z,3.83
2019-02-12T03:09:48.486Z,3.67
2019-02-12T03:14:55.888Z,3.97
2019-02-12T03:20:15.580Z,13.98
2019-02-12T03:25:23.111Z,10.20
2019-02-12T03:30:30.423Z,4.87
2019-02-12T03:40:45.086Z,3.93
2019-02-12T03:45:52.498Z,3.50
2019-02-12T03:51:00.718Z,6.53
2019-02-12T03:56:07.815Z,5.80
2019-02-12T04:01:15.021Z,2.87
2019-02-12T04:06:22.387Z,2.40
2019-02-12T04:11:30.750Z,2.93
2019-02-12T04:16:38.093Z,3.53
2019-02-12T04:21:45.561Z,3.37
2019-02-12T04:26:52.973Z,2.72
2019-02-12T04:32:00.403Z,3.80
2019-02-12T04:37:08.097Z,3.00
2019-02-12T08:47:04.937Z,774.00
2019-02-12T08:52:12.840Z,641.80
2019-02-12T08:57:20.270Z,408.87
2019-02-12T09:02:27.653Z,187.77
2019-02-12T09:07:34.974Z,111.57
2019-02-12T09:12:42.672Z,23.10
2019-02-12T09:17:50.066Z,9.83
2019-02-12T09:22:57.819Z,7.03
2019-02-12T09:38:19.371Z,2.98
2019-02-12T09:43:26.878Z,3.13
2019-02-12T09:48:34.117Z,2.90
2019-02-12T09:53:41.482Z,3.95
2019-02-12T09:58:48.789Z,2.43
2019-02-12T10:03:56.755Z,2.03
2019-02-12T10:09:05.370Z,2.60
2019-02-12T10:14:12.739Z,3.80
2019-02-12T10:19:20.047Z,2.27
2019-02-12T10:24:27.997Z,2.90
2019-02-12T10:29:35.378Z,2.70
2019-02-12T10:34:42.572Z,1.92
2019-02-12T10:39:49.962Z,3.13
2019-02-12T10:44:57.369Z,2.20
2019-02-12T10:50:05.377Z,2.90
2019-02-12T10:55:13.406Z,2.25
2019-02-12T11:00:21.133Z,2.45
2019-02-12T11:05:28.522Z,2.67
2019-02-12T11:10:35.939Z,2.43
2019-02-12T11:15:43.539Z,1.62
2019-02-12T11:20:50.947Z,3.20
2019-02-12T11:25:58.449Z,2.98
2019-02-12T11:31:05.850Z,2.10
2019-02-12T11:36:14.378Z,2.50
2019-02-12T11:41:22.363Z,2.77
2019-02-12T11:46:30.024Z,2.33
2019-02-12T11:51:38.248Z,2.03
2019-02-12T11:56:46.371Z,3.75
2019-02-12T12:01:53.770Z,3.33
2019-02-12T12:07:02.055Z,3.12
2019-02-12T12:12:10.007Z,3.70
2019-02-12T12:17:18.369Z,1.97
2019-02-12T12:22:26.216Z,3.07
2019-02-12T12:27:34.055Z,2.45
2019-02-12T12:32:41.461Z,2.08
2019-02-12T12:37:48.872Z,3.20
2019-02-12T12:42:56.275Z,2.05
2019-02-12T12:48:03.700Z,2.53
2019-02-12T12:53:11.036Z,3.00
2019-02-12T12:58:18.593Z,2.72
2019-02-12T13:03:26.128Z,2.90
2019-02-12T13:08:33.605Z,1.20
2019-02-12T13:13:41.134Z,2.12
2019-02-12T13:18:48.511Z,2.67
2019-02-12T13:23:55.914Z,2.67
2019-02-12T13:29:03.551Z,2.23
2019-02-12T13:34:10.863Z,3.17
2019-02-12T13:39:17.868Z,2.17
2019-02-12T13:44:25.154Z,2.23
2019-02-12T13:49:32.528Z,3.27
2019-02-12T13:54:39.943Z,1.67
2019-02-12T13:59:47.382Z,2.63
2019-02-12T14:04:54.972Z,3.27
2019-02-12T14:10:02.417Z,2.60
2019-02-12T14:15:09.963Z,2.10
2019-02-12T14:20:17.487Z,2.50
2019-02-12T14:25:25.891Z,2.20
2019-02-12T14:30:33.030Z,3.08
2019-02-12T14:35:40.501Z,3.33
2019-02-12T14:40:47.900Z,2.23
2019-02-12T14:45:54.897Z,2.37
2019-02-12T14:51:14.689Z,3.08
2019-02-12T14:56:21.957Z,2.02
2019-02-12T15:01:29.494Z,3.57
2019-02-12T15:06:37.141Z,2.63
2019-02-12T15:11:44.527Z,2.20
2019-02-12T15:27:05.911Z,2.80
2019-02-12T15:32:13.370Z,2.00
2019-02-12T15:37:21.031Z,6.20
2019-02-12T15:42:29.565Z,3.40
2019-02-12T15:47:37.882Z,61.53
2019-02-12T15:52:48.507Z,359.63
2019-02-12T15:57:56.582Z,515.00
2019-02-12T16:03:04.635Z,460.83
2019-02-12T16:13:18.993Z,565.97
2019-02-12T16:23:33.914Z,428.15
2019-02-12T16:28:41.513Z,369.70
2019-02-12T16:33:49.039Z,181.77
2019-02-12T16:38:56.559Z,64.20
2019-02-12T16:44:06.006Z,23.47
2019-02-12T16:49:14.768Z,22.85
2019-02-12T16:54:22.088Z,270.70
2019-02-12T16:59:29.656Z,284.67
2019-02-12T17:04:48.877Z,184.28
2019-02-12T17:09:53.770Z,212.23
2019-02-12T17:15:02.947Z,448.43
2019-02-12T17:20:11.097Z,143.53
2019-02-12T17:25:24.220Z,330.23
2019-02-12T17:30:31.877Z,299.20
2019-02-12T17:35:39.868Z,314.57
2019-02-12T17:40:47.375Z,95.87
2019-02-12T17:46:00.262Z,364.77
2019-02-12T17:51:16.666Z,167.17
2019-02-12T18:01:49.293Z,29.00
2019-02-12T18:07:04.587Z,25.70
2019-02-12T18:12:19.478Z,21.13
2019-02-12T18:17:33.238Z,19.67
2019-02-12T18:22:46.516Z,18.23
2019-02-12T18:28:16.353Z,17.93
2019-02-12T18:33:35.021Z,17.23
2019-02-12T18:38:53.252Z,15.13
2019-02-12T18:44:06.394Z,14.85
2019-02-12T18:49:26.837Z,13.98
2019-02-12T18:54:43.713Z,13.65
2019-02-12T19:00:02.956Z,13.57
2019-02-12T19:05:15.180Z,13.17
2019-02-12T19:10:28.279Z,12.20
2019-02-12T19:15:41.979Z,11.73
2019-02-12T19:20:57.544Z,11.90
2019-02-12T19:26:09.729Z,10.83
2019-02-12T19:31:23.324Z,10.80
2019-02-12T19:36:39.221Z,9.95
2019-02-12T19:41:57.369Z,9.13
2019-02-12T19:47:12.495Z,10.37
2019-02-12T19:52:26.558Z,9.10
2019-02-12T19:57:40.011Z,10.60
2019-02-12T20:03:02.364Z,8.13
2019-02-12T20:08:22.708Z,8.87
2019-02-12T20:13:39.643Z,7.87
2019-02-12T20:18:55.542Z,8.60
2019-02-12T20:24:13.027Z,7.83
2019-02-12T20:29:29.420Z,7.67
2019-02-12T20:34:52.140Z,7.47
2019-02-12T20:40:09.318Z,7.20
2019-02-12T20:45:27.754Z,6.20
2019-02-12T20:50:46.486Z,43.50
2019-02-12T20:56:22.312Z,181.85
2019-02-12T21:01:33.378Z,439.30
2019-02-12T21:06:47.676Z,622.37
2019-02-12T21:17:13.303Z,580.13
2019-02-12T21:27:51.350Z,601.37
2019-02-12T21:33:03.939Z,426.30
2019-02-12T21:38:22.609Z,568.13
2019-02-12T21:43:36.648Z,595.27
2019-02-12T21:48:46.742Z,524.33
2019-02-12T21:54:02.019Z,394.00
2019-02-12T21:59:15.142Z,408.57
2019-02-12T22:09:44.477Z,519.07
2019-02-12T22:15:02.706Z,571.40
2019-02-12T22:20:21.333Z,390.52
2019-02-12T22:25:27.628Z,553.83
2019-02-12T22:30:43.035Z,844.10
2019-02-12T22:35:57.496Z,515.25
2019-02-12T22:41:11.138Z,427.80
2019-02-12T22:46:24.118Z,545.80
2019-02-12T22:51:38.419Z,468.43
2019-02-12T22:56:52.617Z,645.53
2019-02-12T23:02:02.790Z,586.67
2019-02-12T23:07:29.149Z,359.83
2019-02-12T23:12:40.225Z,239.53
2019-02-12T23:23:07.038Z,327.33
2019-02-12T23:28:15.521Z,402.57
2019-02-12T23:33:25.250Z,416.37
2019-02-12T23:38:33.831Z,508.07
2019-02-12T23:48:49.832Z,124.47
2019-02-12T23:54:08.383Z,296.60
2019-02-12T23:59:15.990Z,203.05
